createdAt,value
2019-04-06T00:00:50.665Z,95804.22
2019-04-06T00:03:22.080Z,95803.83
2019-04-06T00:05:53.439Z,95821.84
2019-04-06T00:08:24.693Z,95815.39
2019-04-06T00:10:56.157Z,95815.80
2019-04-06T00:13:27.510Z,95812.83
2019-04-06T00:15:59.197Z,95817.52
2019-04-06T00:18:30.532Z,95817.52
2019-04-06T00:21:02.211Z,95819.69
2019-04-06T00:23:33.713Z,95817.97
2019-04-06T00:26:05.205Z,95808.95
2019-04-06T00:28:36.669Z,95796.97
2019-04-06T00:31:20.434Z,95794.81
2019-04-06T00:33:51.729Z,95796.56
2019-04-06T00:36:23.301Z,95803.83
2019-04-06T00:38:54.897Z,95811.61
2019-04-06T00:41:26.346Z,95805.19
2019-04-06T00:43:57.911Z,95802.99
2019-04-06T00:46:29.397Z,95800.36
2019-04-06T00:49:00.732Z,95802.98
2019-04-06T00:51:32.436Z,95804.31
2019-04-06T00:54:03.795Z,95801.37
2019-04-06T00:56:35.464Z,95809.56
2019-04-06T00:59:06.738Z,95804.02
2019-04-06T01:01:38.177Z,95808.25
2019-04-06T01:04:09.463Z,95809.95
2019-04-06T01:06:41.103Z,95814.22
2019-04-06T01:09:12.420Z,95806.91
2019-04-06T01:11:44.324Z,95805.25
2019-04-06T01:14:15.742Z,95803.55
2019-04-06T01:16:47.015Z,95803.55
2019-04-06T01:19:18.788Z,95800.16
2019-04-06T01:21:50.205Z,95797.62
2019-04-06T01:24:21.540Z,95794.27
2019-04-06T01:26:53.280Z,95796.52
2019-04-06T01:29:24.939Z,95801.72
2019-04-06T01:31:56.137Z,95801.35
2019-04-06T01:34:28.000Z,95794.56
2019-04-06T01:36:59.797Z,95789.44
2019-04-06T01:39:31.344Z,95794.14
2019-04-06T01:42:02.671Z,95794.60
2019-04-06T01:44:33.973Z,95797.56
2019-04-06T01:47:05.382Z,95792.88
2019-04-06T01:49:36.786Z,95792.84
2019-04-06T01:52:08.445Z,95795.39
2019-04-06T01:54:39.690Z,95794.53
2019-04-06T01:57:10.950Z,95784.64
2019-04-06T01:59:42.386Z,95791.03
2019-04-06T02:02:24.153Z,95793.15
2019-04-06T02:04:55.702Z,95796.00
2019-04-06T02:07:27.151Z,95791.70
2019-04-06T02:09:58.398Z,95803.63
2019-04-06T02:12:29.736Z,95794.63
2019-04-06T02:15:01.434Z,95789.52
2019-04-06T02:17:32.671Z,95792.89
2019-04-06T02:20:03.986Z,95793.67
2019-04-06T02:22:47.506Z,95803.43
2019-04-06T02:25:18.866Z,95800.02
2019-04-06T02:27:50.568Z,95799.15
2019-04-06T02:30:34.256Z,95800.04
2019-04-06T02:33:14.854Z,95796.67
2019-04-06T02:35:55.391Z,95801.05
2019-04-06T02:38:44.675Z,95802.84
2019-04-06T02:41:21.474Z,95805.48
2019-04-06T02:43:52.742Z,95814.52
2019-04-06T02:46:24.260Z,95803.02
2019-04-06T02:48:55.660Z,95806.82
2019-04-06T02:51:27.021Z,95806.82
2019-04-06T02:53:58.354Z,95803.02
2019-04-06T02:56:44.262Z,95808.16
2019-04-06T02:59:02.900Z,95795.41
2019-04-06T03:01:34.566Z,95806.94
2019-04-06T03:04:06.060Z,95803.09
2019-04-06T03:06:37.927Z,95808.66
2019-04-06T03:09:11.673Z,95805.64
2019-04-06T03:11:42.938Z,95800.97
2019-04-06T03:14:14.357Z,95792.88
2019-04-06T03:16:45.702Z,95791.15
2019-04-06T03:19:16.875Z,95802.26
2019-04-06T03:21:48.292Z,95787.33
2019-04-06T03:24:19.857Z,95787.76
2019-04-06T03:27:00.908Z,95790.31
2019-04-06T03:29:25.071Z,95789.88
2019-04-06T03:31:56.413Z,95786.48
2019-04-06T03:34:28.020Z,95793.73
2019-04-06T03:36:59.273Z,95789.03
2019-04-06T03:39:30.519Z,95789.90
2019-04-06T03:42:02.060Z,95787.31
2019-04-06T03:44:33.335Z,95789.89
2019-04-06T03:47:04.774Z,95784.73
2019-04-06T03:49:36.125Z,95789.44
2019-04-06T03:52:07.457Z,95793.25
2019-04-06T03:54:38.742Z,95791.53
2019-04-06T03:57:16.074Z,95785.95
2019-04-06T03:59:43.259Z,95788.53
2019-04-06T04:02:14.508Z,95787.22
2019-04-06T04:04:45.858Z,95791.04
2019-04-06T04:07:17.691Z,95785.03
2019-04-06T04:09:49.019Z,95789.32
2019-04-06T04:12:20.557Z,95784.19
2019-04-06T04:14:52.180Z,95788.03
2019-04-06T04:17:23.800Z,95786.73
2019-04-06T04:19:55.183Z,95789.27
2019-04-06T04:22:26.868Z,95784.58
2019-04-06T04:24:58.227Z,95782.48
2019-04-06T04:27:30.719Z,95783.75
2019-04-06T04:30:02.508Z,95790.60
2019-04-06T04:32:33.821Z,95790.57
2019-04-06T04:35:05.439Z,95789.73
2019-04-06T04:37:36.770Z,95793.59
2019-04-06T04:40:08.327Z,95799.15
2019-04-06T04:42:39.889Z,95791.86
2019-04-06T04:45:11.478Z,95792.73
2019-04-06T04:47:42.953Z,95788.84
2019-04-06T04:50:15.351Z,95795.72
2019-04-06T04:52:46.669Z,95799.55
2019-04-06T04:55:18.006Z,95806.81
2019-04-06T04:57:49.459Z,95802.97
2019-04-06T05:00:21.070Z,95803.38
2019-04-06T05:02:52.739Z,95811.92
2019-04-06T05:05:24.179Z,95808.50
2019-04-06T05:07:55.921Z,95814.50
2019-04-06T05:10:27.428Z,95813.22
2019-04-06T05:12:58.855Z,95815.77
2019-04-06T05:16:22.590Z,95814.05
2019-04-06T05:18:54.925Z,95817.89
2019-04-06T05:21:26.445Z,95820.45
2019-04-06T05:23:57.650Z,95819.56
2019-04-06T05:26:36.833Z,95819.95
2019-04-06T05:29:02.146Z,95822.50
2019-04-06T05:31:33.432Z,95822.52
2019-04-06T05:34:05.154Z,95839.65
2019-04-06T05:36:36.814Z,95831.48
2019-04-06T05:39:08.607Z,95821.20
2019-04-06T05:41:39.934Z,95827.59
2019-04-06T05:44:11.422Z,95836.47
2019-04-06T05:46:42.771Z,95835.67
2019-04-06T05:49:14.060Z,95846.79
2019-04-06T05:51:45.380Z,95846.36
2019-04-06T05:54:16.794Z,95839.94
2019-04-06T05:56:48.302Z,95842.91
2019-04-06T05:59:19.763Z,95847.58
2019-04-06T06:01:51.116Z,95846.73
2019-04-06T06:04:22.549Z,95855.73
2019-04-06T06:06:53.848Z,95850.14
2019-04-06T06:09:25.203Z,95857.42
2019-04-06T06:11:57.031Z,95846.27
2019-04-06T06:14:28.697Z,95853.92
2019-04-06T06:17:00.060Z,95853.91
2019-04-06T06:19:31.471Z,95851.69
2019-04-06T06:22:03.154Z,95854.56
2019-04-06T06:24:35.116Z,95853.69
2019-04-06T06:27:07.231Z,95849.47
2019-04-06T06:29:39.052Z,95852.42
2019-04-06T06:32:10.737Z,95852.38
2019-04-06T06:34:42.535Z,95851.41
2019-04-06T06:37:13.828Z,95854.77
2019-04-06T06:39:45.427Z,95848.69
2019-04-06T06:42:17.070Z,95849.48
2019-04-06T06:44:48.328Z,95856.32
2019-04-06T06:47:19.959Z,95866.17
2019-04-06T06:49:51.349Z,95859.99
2019-04-06T06:52:22.636Z,95858.30
2019-04-06T06:54:54.071Z,95866.41
2019-04-06T06:57:25.684Z,95865.28
2019-04-06T06:59:57.228Z,95864.88
2019-04-06T07:02:28.633Z,95870.39
2019-04-06T07:05:00.146Z,95865.97
2019-04-06T07:07:31.978Z,95860.99
2019-04-06T07:10:05.777Z,95861.05
2019-04-06T07:12:37.315Z,95872.70
2019-04-06T07:15:10.804Z,95870.36
2019-04-06T07:17:42.261Z,95865.13
2019-04-06T07:20:14.347Z,95863.72
2019-04-06T07:22:45.792Z,95867.03
2019-04-06T07:25:17.280Z,95865.16
2019-04-06T07:27:48.721Z,95862.45
2019-04-06T07:30:20.389Z,95856.29
2019-04-06T07:32:52.210Z,95854.39
2019-04-06T07:35:23.650Z,95854.26
2019-04-06T07:37:55.465Z,95854.76
2019-04-06T07:40:27.171Z,95856.16
2019-04-06T07:42:59.752Z,95847.48
2019-04-06T07:45:32.076Z,95848.66
2019-04-06T07:48:03.504Z,95850.63
2019-04-06T07:50:34.975Z,95849.05
2019-04-06T07:53:06.703Z,95853.47
2019-04-06T07:55:38.741Z,95852.53
2019-04-06T07:58:10.290Z,95847.23
2019-04-06T08:00:41.767Z,95840.84
2019-04-06T08:03:13.056Z,95850.27
2019-04-06T08:05:44.577Z,95858.23
2019-04-06T08:08:15.892Z,95855.45
2019-04-06T08:10:47.384Z,95847.55
2019-04-06T08:13:18.865Z,95850.83
2019-04-06T08:15:50.767Z,95827.91
2019-04-06T08:18:22.125Z,95831.87
2019-04-06T08:20:53.696Z,95845.23
2019-04-06T08:23:29.949Z,95845.63
2019-04-06T08:26:00.116Z,95841.92
2019-04-06T08:28:31.391Z,95838.94
2019-04-06T08:31:02.775Z,95837.80
2019-04-06T08:33:34.436Z,95836.92
2019-04-06T08:36:08.346Z,95848.27
2019-04-06T08:38:40.078Z,95838.08
2019-04-06T08:41:11.357Z,95837.81
2019-04-06T08:43:44.311Z,95837.64
2019-04-06T08:46:15.715Z,95833.70
2019-04-06T08:48:47.057Z,95829.56
2019-04-06T08:51:18.386Z,95826.09
2019-04-06T08:53:49.856Z,95831.25
2019-04-06T08:56:21.294Z,95826.00
2019-04-06T08:58:52.640Z,95825.27
2019-04-06T09:01:23.931Z,95831.72
2019-04-06T09:03:55.343Z,95830.44
2019-04-06T09:06:26.652Z,95830.77
2019-04-06T09:08:59.054Z,95831.53
2019-04-06T09:11:30.292Z,95831.93
2019-04-06T09:14:01.920Z,95831.84
2019-04-06T09:16:33.307Z,95831.67
2019-04-06T09:19:04.592Z,95828.12
2019-04-06T09:21:36.863Z,95822.08
2019-04-06T09:24:08.412Z,95821.84
2019-04-06T09:26:39.817Z,95817.11
2019-04-06T09:29:21.853Z,95813.21
2019-04-06T09:31:44.173Z,95817.21
2019-04-06T09:34:16.844Z,95817.66
2019-04-06T09:36:48.411Z,95813.22
2019-04-06T09:39:19.669Z,95813.49
2019-04-06T09:41:51.525Z,95807.34
2019-04-06T09:44:41.765Z,95803.48
2019-04-06T09:47:47.780Z,95801.03
2019-04-06T09:50:30.225Z,95795.23
2019-04-06T09:53:06.407Z,95801.77
2019-04-06T09:56:02.766Z,95790.31
2019-04-06T09:58:53.427Z,95785.41
2019-04-06T10:01:44.151Z,95777.50
2019-04-06T10:04:40.321Z,95784.02
2019-04-06T10:07:39.506Z,95785.22
2019-04-06T10:10:39.393Z,95783.14
2019-04-06T10:13:20.770Z,95769.92
2019-04-06T10:16:07.906Z,95772.11
2019-04-06T10:18:55.440Z,95771.77
2019-04-06T10:21:44.383Z,95774.45
2019-04-06T10:24:33.122Z,95776.39
2019-04-06T10:27:41.776Z,95768.66
2019-04-06T10:30:31.490Z,95768.73
2019-04-06T10:33:21.613Z,95761.91
2019-04-06T10:36:09.099Z,95760.65
2019-04-06T10:39:11.701Z,95757.28
2019-04-06T10:42:01.376Z,95766.33
2019-04-06T10:44:51.604Z,95760.22
2019-04-06T10:47:31.604Z,95754.48
2019-04-06T10:50:13.824Z,95755.00
2019-04-06T10:53:16.085Z,95749.52
2019-04-06T10:56:06.260Z,95749.77
2019-04-06T10:59:03.689Z,95740.94
2019-04-06T11:02:06.362Z,95738.06
2019-04-06T11:04:48.248Z,95735.38
2019-04-06T11:07:36.847Z,95736.69
2019-04-06T11:10:20.701Z,95722.92
2019-04-06T11:13:09.959Z,95714.48
2019-04-06T11:15:59.383Z,95715.96
2019-04-06T11:18:48.142Z,95706.44
2019-04-06T11:21:44.439Z,95711.72
2019-04-06T11:24:35.254Z,95690.22
2019-04-06T11:27:24.637Z,95693.65
2019-04-06T11:30:14.378Z,95684.80
2019-04-06T11:33:06.215Z,95681.88
2019-04-06T11:36:05.924Z,95682.43
2019-04-06T11:38:56.110Z,95666.61
2019-04-06T11:41:46.279Z,95663.17
2019-04-06T11:44:39.780Z,95664.00
2019-04-06T11:47:36.379Z,95658.19
2019-04-06T11:50:39.294Z,95646.42
2019-04-06T11:53:28.385Z,95642.84
2019-04-06T11:56:24.991Z,95648.49
2019-04-06T11:59:34.249Z,95646.36
2019-04-06T12:02:20.911Z,95646.02
2019-04-06T12:05:01.467Z,95647.75
2019-04-06T12:07:45.749Z,95647.01
2019-04-06T12:10:48.499Z,95648.49
2019-04-06T12:13:41.402Z,95643.69
2019-04-06T12:16:30.225Z,95628.97
2019-04-06T12:19:16.562Z,95634.42
2019-04-06T12:22:10.160Z,95632.91
2019-04-06T12:25:12.761Z,95633.69
2019-04-06T12:28:08.654Z,95624.30
2019-04-06T12:31:01.842Z,95623.35
2019-04-06T12:33:51.119Z,95618.97
2019-04-06T12:36:45.721Z,95620.26
2019-04-06T12:39:34.862Z,95616.96
2019-04-06T12:42:40.652Z,95615.81
2019-04-06T12:45:29.752Z,95621.73
2019-04-06T12:48:12.581Z,95608.80
2019-04-06T12:51:01.544Z,95605.92
2019-04-06T12:53:38.521Z,95608.34
2019-04-06T12:56:20.962Z,95607.72
2019-04-06T12:59:17.518Z,95605.14
2019-04-06T13:01:58.301Z,95604.95
2019-04-06T13:04:41.073Z,95608.13
2019-04-06T13:07:30.436Z,95605.61
2019-04-06T13:10:20.634Z,95602.23
2019-04-06T13:13:14.390Z,95607.16
2019-04-06T13:16:16.640Z,95605.52
2019-04-06T13:19:04.800Z,95605.37
2019-04-06T13:22:13.129Z,95603.64
2019-04-06T13:24:56.445Z,95595.59
2019-04-06T13:27:55.403Z,95599.25
2019-04-06T13:30:43.383Z,95597.13
2019-04-06T13:33:36.747Z,95591.77
2019-04-06T13:36:26.262Z,95592.19
2019-04-06T13:39:15.320Z,95588.91
2019-04-06T13:41:53.097Z,95586.41
2019-04-06T13:44:30.868Z,95588.00
2019-04-06T13:47:18.427Z,95582.16
2019-04-06T13:50:11.512Z,95579.89
2019-04-06T13:53:01.588Z,95585.95
2019-04-06T13:55:50.700Z,95590.93
2019-04-06T13:58:46.638Z,95585.91
2019-04-06T14:01:34.101Z,95581.58
2019-04-06T14:04:15.657Z,95591.42
2019-04-06T14:07:05.824Z,95588.92
2019-04-06T14:09:54.812Z,95582.47
2019-04-06T14:12:48.039Z,95582.80
2019-04-06T14:15:37.127Z,95573.80
2019-04-06T14:18:25.999Z,95574.41
2019-04-06T14:21:15.047Z,95585.83
2019-04-06T14:24:05.349Z,95574.36
2019-04-06T14:26:54.327Z,95578.21
2019-04-06T14:29:54.159Z,95570.52
2019-04-06T14:32:47.585Z,95570.52
2019-04-06T14:35:27.917Z,95565.39
2019-04-06T14:38:20.949Z,95570.05
2019-04-06T14:41:17.117Z,95566.33
2019-04-06T14:44:10.445Z,95564.59
2019-04-06T14:46:54.438Z,95568.88
2019-04-06T14:49:39.275Z,95559.50
2019-04-06T14:52:22.986Z,95561.78
2019-04-06T14:55:05.695Z,95558.66
2019-04-06T14:57:59.360Z,95568.33
2019-04-06T15:00:41.838Z,95555.27
2019-04-06T15:03:47.877Z,95560.55
2019-04-06T15:06:37.150Z,95565.31
2019-04-06T15:09:34.732Z,95560.41
2019-04-06T15:12:31.364Z,95559.95
2019-04-06T15:15:20.083Z,95556.98
2019-04-06T15:18:16.485Z,95561.72
2019-04-06T15:20:59.682Z,95553.39
2019-04-06T15:23:42.133Z,95552.94
2019-04-06T15:26:22.352Z,95559.66
2019-04-06T15:29:11.777Z,95551.30
2019-04-06T15:31:52.883Z,95561.78
2019-04-06T15:34:47.703Z,95564.58
2019-04-06T15:37:35.429Z,95563.94
2019-04-06T15:40:25.058Z,95565.67
2019-04-06T15:43:33.925Z,95574.64
2019-04-06T15:46:23.235Z,95566.58
2019-04-06T15:49:02.029Z,95563.22
2019-04-06T15:51:54.872Z,95557.31
2019-04-06T15:54:32.659Z,95562.57
2019-04-06T15:57:08.794Z,95563.70
2019-04-06T15:59:55.131Z,95568.91
2019-04-06T16:02:48.808Z,95566.20
2019-04-06T16:05:34.128Z,95562.61
2019-04-06T16:08:23.242Z,95564.48
2019-04-06T16:11:08.064Z,95565.44
2019-04-06T16:13:52.023Z,95562.81
2019-04-06T16:16:42.189Z,95555.45
2019-04-06T16:19:32.684Z,95559.66
2019-04-06T16:22:21.843Z,95560.36
2019-04-06T16:24:58.644Z,95558.46
2019-04-06T16:27:48.377Z,95558.92
2019-04-06T16:30:41.879Z,95554.69
2019-04-06T16:33:30.950Z,95557.80
2019-04-06T16:36:30.286Z,95557.87
2019-04-06T16:39:16.624Z,95562.00
2019-04-06T16:41:57.998Z,95567.00
2019-04-06T16:44:33.725Z,95561.51
2019-04-06T16:47:19.384Z,95563.06
2019-04-06T16:49:57.952Z,95564.55
2019-04-06T16:52:51.106Z,95568.50
2019-04-06T16:55:47.027Z,95567.32
2019-04-06T16:58:32.278Z,95570.21
2019-04-06T17:01:21.670Z,95574.45
2019-04-06T17:04:14.981Z,95578.68
2019-04-06T17:07:02.767Z,95579.05
2019-04-06T17:09:52.295Z,95570.27
2019-04-06T17:12:39.532Z,95571.06
2019-04-06T17:15:36.248Z,95578.34
2019-04-06T17:18:29.404Z,95571.95
2019-04-06T17:21:12.767Z,95569.48
2019-04-06T17:24:02.281Z,95570.08
2019-04-06T17:26:59.237Z,95567.25
2019-04-06T17:29:52.188Z,95570.70
2019-04-06T17:32:45.303Z,95564.53
2019-04-06T17:35:41.484Z,95573.01
2019-04-06T17:38:19.558Z,95570.97
2019-04-06T17:41:00.208Z,95575.73
2019-04-06T17:43:49.538Z,95573.89
2019-04-06T17:46:38.592Z,95575.16
2019-04-06T17:49:27.653Z,95578.61
2019-04-06T17:52:17.235Z,95582.89
2019-04-06T17:55:11.528Z,95580.83
2019-04-06T17:58:00.526Z,95584.47
2019-04-06T18:00:50.816Z,95590.71
2019-04-06T18:03:41.747Z,95588.13
2019-04-06T18:06:20.090Z,95582.68
2019-04-06T18:09:08.471Z,95592.69
2019-04-06T18:11:49.376Z,95595.45
2019-04-06T18:14:20.849Z,95600.41
2019-04-06T18:16:52.107Z,95609.83
2019-04-06T18:19:23.386Z,95601.84
2019-04-06T18:21:54.696Z,95604.23
2019-04-06T18:24:25.957Z,95606.31
2019-04-06T18:26:57.469Z,95619.61
2019-04-06T18:29:28.635Z,95624.19
2019-04-06T18:32:10.115Z,95623.29
2019-04-06T18:34:42.240Z,95630.03
2019-04-06T18:37:35.762Z,95627.17
2019-04-06T18:40:21.612Z,95632.05
2019-04-06T18:42:52.949Z,95634.45
2019-04-06T18:45:24.620Z,95632.41
2019-04-06T18:47:55.876Z,95633.57
2019-04-06T18:50:34.186Z,95635.58
2019-04-06T18:53:00.121Z,95633.67
2019-04-06T18:55:31.356Z,95641.56
2019-04-06T18:58:10.610Z,95645.22
2019-04-06T19:00:35.994Z,95641.98
2019-04-06T19:03:14.131Z,95642.30
2019-04-06T19:05:40.612Z,95639.39
2019-04-06T19:08:12.042Z,95637.00
2019-04-06T19:10:43.624Z,95637.56
2019-04-06T19:13:14.805Z,95642.44
2019-04-06T19:15:45.954Z,95645.11
2019-04-06T19:18:17.161Z,95647.64
2019-04-06T19:20:48.678Z,95650.55
2019-04-06T19:23:19.927Z,95651.06
2019-04-06T19:25:51.699Z,95655.16
2019-04-06T19:28:23.129Z,95662.53
2019-04-06T19:30:54.514Z,95658.63
2019-04-06T19:33:26.513Z,95662.74
2019-04-06T19:35:58.749Z,95666.25
2019-04-06T19:38:29.997Z,95666.83
2019-04-06T19:41:01.268Z,95671.22
2019-04-06T19:43:32.416Z,95674.00
2019-04-06T19:46:03.712Z,95669.45
2019-04-06T19:48:35.136Z,95672.91
2019-04-06T19:51:06.893Z,95667.70
2019-04-06T19:53:38.285Z,95668.22
2019-04-06T19:56:10.213Z,95659.64
2019-04-06T19:58:41.702Z,95666.80
2019-04-06T20:01:12.981Z,95658.88
2019-04-06T20:03:44.573Z,95665.17
2019-04-06T20:06:15.790Z,95657.80
2019-04-06T20:08:47.390Z,95659.56
2019-04-06T20:11:19.358Z,95662.20
2019-04-06T20:13:50.710Z,95669.31
2019-04-06T20:16:22.064Z,95669.20
2019-04-06T20:18:53.385Z,95670.77
2019-04-06T20:21:25.361Z,95664.16
2019-04-06T20:23:57.122Z,95666.77
2019-04-06T20:26:29.453Z,95676.09
2019-04-06T20:29:02.438Z,95677.46
2019-04-06T20:31:34.151Z,95671.45
2019-04-06T20:34:06.455Z,95673.89
2019-04-06T20:36:37.773Z,95674.72
2019-04-06T20:39:10.643Z,95669.91
2019-04-06T20:41:42.026Z,95671.87
2019-04-06T20:44:13.176Z,95664.55
2019-04-06T20:46:45.069Z,95667.67
2019-04-06T20:49:16.783Z,95665.38
2019-04-06T20:51:48.777Z,95663.02
2019-04-06T20:54:19.966Z,95670.83
2019-04-06T20:56:56.378Z,95672.23
2019-04-06T20:59:24.224Z,95664.58
2019-04-06T21:01:55.513Z,95662.77
2019-04-06T21:04:26.767Z,95661.22
2019-04-06T21:06:57.941Z,95659.37
2019-04-06T21:09:30.532Z,95658.91
2019-04-06T21:12:01.652Z,95659.83
2019-04-06T21:14:32.852Z,95652.30
2019-04-06T21:17:04.254Z,95648.23
2019-04-06T21:19:35.570Z,95650.27
2019-04-06T21:22:07.152Z,95645.59
2019-04-06T21:24:38.385Z,95638.89
2019-04-06T21:27:09.753Z,95640.41
2019-04-06T21:29:41.285Z,95638.27
2019-04-06T21:32:12.841Z,95632.91
2019-04-06T21:34:44.821Z,95645.39
2019-04-06T21:37:15.999Z,95635.06
2019-04-06T21:39:48.464Z,95632.66
2019-04-06T21:42:20.004Z,95636.84
2019-04-06T21:44:51.269Z,95629.88
2019-04-06T21:47:23.109Z,95628.66
2019-04-06T21:49:54.702Z,95633.56
2019-04-06T21:52:26.250Z,95629.20
2019-04-06T21:54:57.862Z,95641.94
2019-04-06T21:57:29.086Z,95636.84
2019-04-06T22:00:00.759Z,95640.38
2019-04-06T22:02:34.511Z,95638.63
2019-04-06T22:05:09.324Z,95645.20
2019-04-06T22:07:48.708Z,95650.88
2019-04-06T22:10:15.742Z,95648.79
2019-04-06T22:12:46.997Z,95646.22
2019-04-06T22:15:19.199Z,95649.22
2019-04-06T22:17:50.583Z,95644.10
2019-04-06T22:20:22.106Z,95652.13
2019-04-06T22:22:53.644Z,95644.53
2019-04-06T22:25:25.469Z,95642.78
2019-04-06T22:27:57.280Z,95640.42
2019-04-06T22:30:28.995Z,95637.48
2019-04-06T22:33:00.554Z,95649.46
2019-04-06T22:35:32.000Z,95643.11
2019-04-06T22:38:03.470Z,95646.03
2019-04-06T22:40:34.956Z,95643.57
2019-04-06T22:43:06.625Z,95640.28
2019-04-06T22:45:37.933Z,95635.22
2019-04-06T22:48:09.343Z,95628.92
2019-04-06T22:50:41.163Z,95634.01
2019-04-06T22:53:12.397Z,95634.90
2019-04-06T22:55:44.593Z,95638.64
2019-04-06T22:58:15.975Z,95637.02
2019-04-06T23:00:52.808Z,95633.05
2019-04-06T23:03:52.576Z,95627.78
2019-04-06T23:06:29.968Z,95631.09
2019-04-06T23:09:01.224Z,95632.53
2019-04-06T23:11:33.597Z,95625.61
2019-04-06T23:14:05.085Z,95630.87
2019-04-06T23:16:36.939Z,95625.48
2019-04-06T23:19:08.270Z,95630.84
2019-04-06T23:21:40.015Z,95626.84
2019-04-06T23:24:11.372Z,95625.61
2019-04-06T23:26:42.665Z,95632.95
2019-04-06T23:29:14.393Z,95624.98
2019-04-06T23:31:46.658Z,95627.73
2019-04-06T23:34:18.052Z,95623.63
2019-04-06T23:36:49.948Z,95629.27
2019-04-06T23:39:21.771Z,95630.17
2019-04-06T23:41:53.193Z,95632.92
2019-04-06T23:44:24.988Z,95631.24
2019-04-06T23:46:56.484Z,95636.94
2019-04-06T23:49:27.924Z,95633.53
2019-04-06T23:51:59.248Z,95634.56
2019-04-06T23:54:30.544Z,95632.53
2019-04-06T23:57:02.597Z,95633.13
2019-04-06T23:59:33.969Z,95625.88
